createdAt,value
2023-05-05T00:00:55.331Z,4.20
2023-05-05T00:03:24.072Z,4.27
2023-05-05T00:05:54.448Z,3.90
2023-05-05T00:08:23.770Z,4.63
2023-05-05T00:10:53.612Z,4.20
2023-05-05T00:13:24.739Z,4.10
2023-05-05T00:15:54.607Z,4.10
2023-05-05T00:18:23.339Z,3.63
2023-05-05T00:20:51.695Z,4.07
2023-05-05T00:23:20.645Z,4.80
2023-05-05T00:25:49.894Z,3.90
2023-05-05T00:28:18.398Z,4.27
2023-05-05T00:30:46.697Z,3.57
2023-05-05T00:33:14.974Z,4.50
2023-05-05T00:35:44.616Z,3.83
2023-05-05T00:38:12.634Z,4.30
2023-05-05T00:40:40.514Z,3.67
2023-05-05T00:43:10.391Z,4.23
2023-05-05T00:45:43.106Z,3.67
2023-05-05T00:48:11.204Z,3.80
2023-05-05T00:50:39.837Z,4.80
2023-05-05T00:53:08.651Z,4.20
2023-05-05T00:55:36.770Z,5.23
2023-05-05T00:58:05.248Z,4.20
2023-05-05T01:00:35.702Z,4.40
2023-05-05T01:03:05.353Z,4.17
2023-05-05T01:05:43.209Z,3.80
2023-05-05T01:08:27.072Z,3.80
2023-05-05T01:11:07.822Z,4.50
2023-05-05T01:13:48.577Z,4.73
2023-05-05T01:16:22.222Z,4.50
2023-05-05T01:18:57.928Z,4.63
2023-05-05T01:21:32.620Z,4.93
2023-05-05T01:24:21.730Z,3.70
2023-05-05T01:27:01.027Z,3.43
2023-05-05T01:29:51.770Z,3.40
2023-05-05T01:32:27.070Z,4.23
2023-05-05T01:35:01.160Z,4.67
2023-05-05T01:37:35.538Z,4.60
2023-05-05T01:40:08.684Z,4.20
2023-05-05T01:42:38.829Z,4.40
2023-05-05T01:45:10.585Z,4.43
2023-05-05T01:47:42.148Z,4.50
2023-05-05T01:50:13.524Z,4.97
2023-05-05T01:52:44.214Z,4.63
2023-05-05T01:55:13.535Z,4.37
2023-05-05T01:57:43.650Z,5.30
2023-05-05T02:00:12.916Z,4.90
2023-05-05T02:02:50.414Z,5.30
2023-05-05T02:05:22.687Z,4.23
2023-05-05T02:07:57.567Z,4.63
2023-05-05T02:10:25.846Z,4.77
2023-05-05T02:12:54.888Z,4.47
2023-05-05T02:15:26.266Z,4.30
2023-05-05T02:17:56.593Z,4.20
2023-05-05T02:20:25.573Z,4.13
2023-05-05T02:22:55.662Z,4.20
2023-05-05T02:25:26.652Z,4.77
2023-05-05T02:28:00.843Z,4.60
2023-05-05T02:30:34.534Z,5.03
2023-05-05T02:33:07.994Z,4.63
2023-05-05T02:35:40.307Z,4.60
2023-05-05T02:38:17.581Z,5.00
2023-05-05T02:40:50.887Z,4.07
2023-05-05T02:43:22.228Z,4.80
2023-05-05T02:45:50.439Z,5.20
2023-05-05T02:48:22.034Z,4.63
2023-05-05T02:50:52.527Z,5.20
2023-05-05T02:53:28.992Z,5.10
2023-05-05T02:56:06.916Z,4.30
2023-05-05T02:58:47.321Z,4.27
2023-05-05T03:01:28.462Z,4.90
2023-05-05T03:04:10.253Z,4.23
2023-05-05T03:06:47.535Z,4.13
2023-05-05T03:09:26.883Z,4.30
2023-05-05T03:12:03.923Z,4.60
2023-05-05T03:14:41.589Z,4.17
2023-05-05T03:17:13.242Z,3.70
2023-05-05T03:19:44.048Z,4.03
2023-05-05T03:22:13.156Z,3.73
2023-05-05T03:24:51.202Z,3.93
2023-05-05T03:27:22.856Z,4.20
2023-05-05T03:29:50.794Z,4.40
2023-05-05T03:32:18.766Z,4.40
2023-05-05T03:34:48.782Z,4.33
2023-05-05T03:37:16.984Z,4.60
2023-05-05T03:39:45.230Z,4.87
2023-05-05T03:42:13.549Z,4.57
2023-05-05T03:44:41.694Z,5.10
2023-05-05T03:47:09.886Z,4.80
2023-05-05T03:49:40.102Z,4.70
2023-05-05T03:52:13.173Z,4.10
2023-05-05T03:54:43.345Z,4.63
2023-05-05T03:57:11.375Z,4.40
2023-05-05T03:59:39.596Z,4.43
2023-05-05T04:02:07.990Z,4.13
2023-05-05T04:04:36.430Z,4.17
2023-05-05T04:07:07.431Z,3.83
2023-05-05T04:09:36.920Z,4.73
2023-05-05T04:12:05.433Z,4.50
2023-05-05T04:14:33.928Z,5.00
2023-05-05T04:17:01.922Z,4.70
2023-05-05T04:19:33.448Z,5.67
2023-05-05T04:22:03.179Z,4.90
2023-05-05T04:24:31.617Z,4.57
2023-05-05T04:27:02.222Z,5.60
2023-05-05T04:29:32.474Z,5.20
2023-05-05T04:32:01.051Z,4.30
2023-05-05T04:34:29.225Z,5.37
2023-05-05T04:36:57.515Z,4.67
2023-05-05T04:39:25.756Z,4.47
2023-05-05T04:41:53.975Z,4.47
2023-05-05T04:44:23.518Z,4.67
2023-05-05T04:46:51.795Z,5.10
2023-05-05T04:49:21.166Z,4.33
2023-05-05T04:51:49.762Z,4.70
2023-05-05T04:54:20.201Z,5.00
2023-05-05T04:56:50.594Z,4.33
2023-05-05T04:59:18.836Z,4.60
2023-05-05T05:01:48.745Z,4.97
2023-05-05T05:04:18.532Z,3.90
2023-05-05T05:06:47.019Z,4.93
2023-05-05T05:09:15.339Z,3.90
2023-05-05T05:11:43.343Z,4.40
2023-05-05T05:14:11.475Z,4.57
2023-05-05T05:16:39.517Z,4.77
2023-05-05T05:19:09.291Z,4.23
2023-05-05T05:21:37.820Z,4.30
2023-05-05T05:24:08.657Z,3.87
2023-05-05T05:26:36.921Z,4.60
2023-05-05T05:29:09.312Z,4.87
2023-05-05T05:31:37.733Z,4.57
2023-05-05T05:34:12.038Z,5.10
2023-05-05T05:36:41.883Z,4.03
2023-05-05T05:39:10.275Z,4.43
2023-05-05T05:41:39.309Z,4.53
2023-05-05T05:44:07.438Z,4.50
2023-05-05T05:46:36.405Z,4.00
2023-05-05T05:49:04.505Z,4.03
2023-05-05T05:51:34.216Z,4.80
2023-05-05T05:54:02.916Z,5.07
2023-05-05T05:56:31.719Z,5.37
2023-05-05T05:59:01.410Z,4.50
2023-05-05T06:01:29.927Z,4.07
2023-05-05T06:03:58.294Z,4.37
2023-05-05T06:06:29.249Z,4.13
2023-05-05T06:08:58.693Z,4.67
2023-05-05T06:11:27.137Z,4.70
2023-05-05T06:13:56.483Z,4.30
2023-05-05T06:16:24.540Z,5.67
2023-05-05T06:18:52.716Z,4.17
2023-05-05T06:21:23.045Z,5.63
2023-05-05T06:23:51.025Z,4.33
2023-05-05T06:26:21.532Z,4.40
2023-05-05T06:28:50.045Z,4.90
2023-05-05T06:31:18.584Z,4.20
2023-05-05T06:33:46.678Z,4.97
2023-05-05T06:36:14.729Z,4.10
2023-05-05T06:38:43.337Z,5.00
2023-05-05T06:41:11.460Z,5.40
2023-05-05T06:43:42.924Z,3.90
2023-05-05T06:46:14.081Z,4.60
2023-05-05T06:48:41.980Z,4.57
2023-05-05T06:51:10.635Z,4.40
2023-05-05T06:53:38.681Z,4.37
2023-05-05T06:56:08.883Z,4.30
2023-05-05T06:58:36.688Z,4.80
2023-05-05T07:01:06.288Z,4.20
2023-05-05T07:03:34.487Z,3.80
2023-05-05T07:06:05.942Z,4.80
2023-05-05T07:08:34.288Z,4.40
2023-05-05T07:11:02.335Z,4.40
2023-05-05T07:13:30.746Z,4.57
2023-05-05T07:15:58.771Z,5.00
2023-05-05T07:18:28.594Z,5.37
2023-05-05T07:20:56.687Z,6.00
2023-05-05T07:23:24.737Z,4.77
2023-05-05T07:25:52.707Z,4.60
2023-05-05T07:28:22.647Z,4.40
2023-05-05T07:30:52.345Z,5.17
2023-05-05T07:33:22.636Z,4.80
2023-05-05T07:35:52.063Z,4.57
2023-05-05T07:38:20.014Z,4.20
2023-05-05T07:40:48.388Z,4.70
2023-05-05T07:43:16.678Z,4.70
2023-05-05T07:45:44.700Z,5.00
2023-05-05T07:48:15.012Z,4.90
2023-05-05T07:50:43.383Z,4.90
2023-05-05T07:53:14.893Z,5.20
2023-05-05T07:55:45.579Z,4.23
2023-05-05T07:58:13.849Z,4.90
2023-05-05T08:00:43.689Z,5.33
2023-05-05T08:03:12.271Z,5.20
2023-05-05T08:05:40.803Z,5.67
2023-05-05T08:08:08.730Z,4.70
2023-05-05T08:10:37.996Z,4.70
2023-05-05T08:13:08.321Z,4.60
2023-05-05T08:15:38.812Z,5.13
2023-05-05T08:18:07.239Z,5.30
2023-05-05T08:20:35.324Z,5.17
2023-05-05T08:23:03.275Z,4.33
2023-05-05T08:25:31.432Z,5.00
2023-05-05T08:28:00.801Z,5.00
2023-05-05T08:30:28.990Z,4.60
2023-05-05T08:32:57.469Z,4.63
2023-05-05T08:35:28.032Z,5.00
2023-05-05T08:37:58.792Z,4.57
2023-05-05T08:40:33.394Z,5.13
2023-05-05T08:43:06.109Z,4.60
2023-05-05T08:45:34.625Z,4.50
2023-05-05T08:48:06.225Z,5.50
2023-05-05T08:50:34.543Z,4.40
2023-05-05T08:53:10.681Z,4.70
2023-05-05T08:55:46.727Z,4.23
2023-05-05T08:58:16.993Z,5.00
2023-05-05T09:00:46.597Z,5.17
2023-05-05T09:03:15.626Z,4.50
2023-05-05T09:05:44.299Z,4.60
2023-05-05T09:08:13.210Z,4.70
2023-05-05T09:10:44.709Z,4.40
2023-05-05T09:13:13.543Z,4.10
2023-05-05T09:15:43.030Z,4.23
2023-05-05T09:18:12.149Z,4.53
2023-05-05T09:20:41.656Z,4.83
2023-05-05T09:23:11.596Z,4.10
2023-05-05T09:25:40.915Z,4.47
2023-05-05T09:28:10.674Z,4.40
2023-05-05T09:30:39.594Z,4.37
2023-05-05T09:33:16.712Z,4.07
2023-05-05T09:35:53.222Z,4.23
2023-05-05T09:38:22.194Z,4.70
2023-05-05T09:40:52.834Z,4.67
2023-05-05T09:43:23.838Z,3.90
2023-05-05T09:46:07.392Z,3.97
2023-05-05T09:48:37.550Z,4.17
2023-05-05T09:51:05.973Z,4.27
2023-05-05T09:53:40.482Z,3.90
2023-05-05T09:56:10.236Z,3.87
2023-05-05T09:58:38.403Z,3.47
2023-05-05T10:01:06.463Z,3.83
2023-05-05T10:03:50.523Z,3.17
2023-05-05T10:06:19.312Z,3.30
2023-05-05T10:09:02.526Z,3.97
2023-05-05T10:11:31.349Z,2.60
2023-05-05T10:13:59.642Z,2.10
2023-05-05T10:16:31.151Z,2.43
2023-05-05T10:19:04.155Z,2.27
2023-05-05T10:21:35.181Z,2.23
2023-05-05T10:24:10.477Z,2.33
2023-05-05T10:26:42.850Z,2.47
2023-05-05T10:29:30.100Z,1.93
2023-05-05T10:32:27.219Z,1.77
2023-05-05T10:35:00.911Z,2.07
2023-05-05T10:37:31.578Z,1.97
2023-05-05T10:40:00.242Z,2.23
2023-05-05T10:42:28.620Z,2.30
2023-05-05T10:44:56.845Z,1.93
2023-05-05T10:47:25.800Z,2.07
2023-05-05T10:49:58.769Z,2.30
2023-05-05T10:52:36.064Z,1.63
2023-05-05T10:55:12.745Z,1.40
2023-05-05T10:57:43.392Z,1.40
2023-05-05T11:00:32.544Z,1.30
2023-05-05T11:03:32.108Z,1.13
2023-05-05T11:06:16.284Z,1.20
2023-05-05T11:08:45.402Z,1.13
2023-05-05T11:11:14.029Z,1.10
2023-05-05T11:13:44.164Z,1.10
2023-05-05T11:16:44.433Z,1.13
2023-05-05T11:19:48.403Z,2.03
2023-05-05T11:22:17.779Z,1.73
2023-05-05T11:24:47.136Z,1.30
2023-05-05T11:27:15.541Z,1.33
2023-05-05T11:30:06.650Z,1.30
2023-05-05T11:32:35.018Z,1.70
2023-05-05T11:35:06.181Z,1.27
2023-05-05T11:37:36.146Z,1.33
2023-05-05T11:40:11.356Z,1.50
2023-05-05T11:42:39.761Z,1.27
2023-05-05T11:45:22.104Z,1.40
2023-05-05T11:47:52.564Z,1.93
2023-05-05T11:50:23.331Z,1.27
2023-05-05T11:52:53.781Z,1.20
2023-05-05T11:55:25.947Z,1.40
2023-05-05T11:57:54.782Z,1.30
2023-05-05T12:00:34.803Z,1.50
2023-05-05T12:03:03.314Z,1.50
2023-05-05T12:05:34.835Z,1.37
2023-05-05T12:08:04.822Z,1.63
2023-05-05T12:10:33.065Z,1.20
2023-05-05T12:13:03.714Z,2.30
2023-05-05T12:15:34.400Z,1.43
2023-05-05T12:18:03.480Z,2.33
2023-05-05T12:20:35.108Z,1.70
2023-05-05T12:23:04.935Z,1.07
2023-05-05T12:25:38.126Z,1.20
2023-05-05T12:28:07.817Z,0.90
2023-05-05T12:30:37.179Z,1.20
2023-05-05T12:33:06.378Z,1.10
2023-05-05T12:35:36.553Z,1.20
2023-05-05T12:38:04.686Z,0.90
2023-05-05T12:40:51.680Z,1.13
2023-05-05T12:43:27.762Z,0.90
2023-05-05T12:46:09.589Z,1.13
2023-05-05T12:48:39.520Z,1.10
2023-05-05T12:51:17.373Z,1.20
2023-05-05T12:53:46.461Z,1.40
2023-05-05T12:56:30.397Z,1.13
2023-05-05T12:59:00.963Z,1.50
2023-05-05T13:01:31.157Z,1.40
2023-05-05T13:04:06.812Z,1.50
2023-05-05T13:06:37.663Z,1.00
2023-05-05T13:09:06.160Z,0.90
2023-05-05T13:11:38.395Z,1.10
2023-05-05T13:14:07.764Z,0.80
2023-05-05T13:16:39.347Z,1.00
2023-05-05T13:19:07.506Z,1.00
2023-05-05T13:21:36.664Z,1.30
2023-05-05T13:24:23.018Z,1.20
2023-05-05T13:26:55.967Z,1.87
2023-05-05T13:29:30.462Z,1.00
2023-05-05T13:32:00.057Z,1.10
2023-05-05T13:34:30.286Z,0.83
2023-05-05T13:36:59.691Z,1.20
2023-05-05T13:39:27.902Z,2.00
2023-05-05T13:41:56.091Z,1.00
2023-05-05T13:44:24.275Z,1.10
2023-05-05T13:46:52.325Z,1.07
2023-05-05T13:49:21.369Z,0.90
2023-05-05T13:51:49.374Z,1.00
2023-05-05T13:54:18.804Z,1.00
2023-05-05T13:56:49.323Z,1.10
2023-05-05T13:59:17.427Z,1.20
2023-05-05T14:01:45.648Z,1.00
2023-05-05T14:04:13.862Z,1.30
2023-05-05T14:06:44.224Z,2.57
2023-05-05T14:09:14.190Z,1.67
2023-05-05T14:11:46.181Z,1.50
2023-05-05T14:14:16.721Z,1.33
2023-05-05T14:16:44.612Z,0.90
2023-05-05T14:19:12.793Z,1.83
2023-05-05T14:21:40.928Z,1.60
2023-05-05T14:24:09.510Z,4.93
2023-05-05T14:26:37.689Z,2.07
2023-05-05T14:29:07.060Z,1.07
2023-05-05T14:31:36.221Z,1.03
2023-05-05T14:34:04.241Z,0.90
2023-05-05T14:36:32.790Z,1.40
2023-05-05T14:39:03.262Z,1.10
2023-05-05T14:41:31.187Z,1.07
2023-05-05T14:43:59.426Z,1.23
2023-05-05T14:46:29.163Z,1.60
2023-05-05T14:48:57.058Z,1.00
2023-05-05T14:51:24.882Z,1.20
2023-05-05T14:53:52.835Z,1.10
2023-05-05T14:56:24.720Z,1.10
2023-05-05T14:58:52.577Z,1.00
2023-05-05T15:01:21.730Z,1.70
2023-05-05T15:03:51.944Z,1.20
2023-05-05T15:06:20.619Z,1.10
2023-05-05T15:08:51.396Z,1.30
2023-05-05T15:11:21.891Z,1.00
2023-05-05T15:13:52.012Z,1.33
2023-05-05T15:16:20.254Z,1.10
2023-05-05T15:18:48.118Z,1.50
2023-05-05T15:21:17.600Z,1.30
2023-05-05T15:23:47.560Z,1.10
2023-05-05T15:26:15.710Z,1.20
2023-05-05T15:28:43.913Z,1.30
2023-05-05T15:31:12.310Z,1.50
2023-05-05T15:33:40.521Z,1.10
2023-05-05T15:36:09.247Z,1.00
2023-05-05T15:38:43.006Z,0.90
2023-05-05T15:41:11.203Z,0.90
2023-05-05T15:43:41.330Z,1.00
2023-05-05T15:46:09.272Z,1.20
2023-05-05T15:48:37.314Z,1.00
2023-05-05T15:51:05.541Z,1.07
2023-05-05T15:53:33.874Z,1.00
2023-05-05T15:56:03.453Z,1.30
2023-05-05T15:58:31.410Z,1.50
2023-05-05T16:00:59.231Z,2.30
2023-05-05T16:03:29.024Z,1.77
2023-05-05T16:05:57.105Z,1.53
2023-05-05T16:08:25.825Z,1.13
2023-05-05T16:10:56.989Z,1.10
2023-05-05T16:13:26.400Z,1.03
2023-05-05T16:15:55.344Z,1.10
2023-05-05T16:18:23.759Z,0.90
2023-05-05T16:20:52.256Z,0.80
2023-05-05T16:23:21.087Z,1.10
2023-05-05T16:25:49.488Z,1.10
2023-05-05T16:28:17.352Z,1.20
2023-05-05T16:30:49.495Z,1.27
2023-05-05T16:33:17.585Z,1.53
2023-05-05T16:35:46.168Z,1.33
2023-05-05T16:38:15.476Z,1.27
2023-05-05T16:40:44.050Z,1.50
2023-05-05T16:43:15.748Z,1.30
2023-05-05T16:45:43.991Z,1.30
2023-05-05T16:48:14.729Z,1.07
2023-05-05T16:50:45.592Z,0.97
2023-05-05T16:53:15.232Z,1.10
2023-05-05T16:55:44.846Z,1.37
2023-05-05T16:58:12.780Z,1.40
2023-05-05T17:00:40.786Z,1.33
2023-05-05T17:03:08.910Z,1.53
2023-05-05T17:05:38.501Z,1.70
2023-05-05T17:08:07.695Z,1.60
2023-05-05T17:10:35.880Z,1.50
2023-05-05T17:13:04.524Z,1.20
2023-05-05T17:15:32.734Z,1.00
2023-05-05T17:18:00.909Z,1.30
2023-05-05T17:20:30.988Z,1.63
2023-05-05T17:23:01.989Z,1.30
2023-05-05T17:25:30.163Z,1.50
2023-05-05T17:27:58.176Z,1.20
2023-05-05T17:30:26.390Z,1.30
2023-05-05T17:32:54.647Z,1.43
2023-05-05T17:35:22.534Z,1.37
2023-05-05T17:37:52.934Z,1.50
2023-05-05T17:40:22.436Z,1.10
2023-05-05T17:42:50.463Z,1.37
2023-05-05T17:45:18.667Z,1.30
2023-05-05T17:47:46.874Z,1.23
2023-05-05T17:50:14.837Z,1.23
2023-05-05T17:52:44.960Z,1.70
2023-05-05T17:55:13.209Z,1.23
2023-05-05T17:57:42.761Z,1.40
2023-05-05T18:00:11.425Z,1.60
2023-05-05T18:02:42.389Z,1.50
2023-05-05T18:05:11.347Z,1.47
2023-05-05T18:07:39.815Z,1.60
2023-05-05T18:10:10.688Z,1.03
2023-05-05T18:12:38.965Z,1.30
2023-05-05T18:15:10.217Z,1.60
2023-05-05T18:17:38.724Z,1.30
2023-05-05T18:20:08.213Z,1.40
2023-05-05T18:22:36.409Z,1.40
2023-05-05T18:25:05.954Z,1.37
2023-05-05T18:27:35.977Z,1.27
2023-05-05T18:30:10.201Z,1.70
2023-05-05T18:32:38.781Z,1.70
2023-05-05T18:35:08.255Z,1.47
2023-05-05T18:37:36.685Z,1.90
2023-05-05T18:40:05.954Z,1.70
2023-05-05T18:42:34.058Z,1.90
2023-05-05T18:45:02.236Z,1.90
2023-05-05T18:47:36.513Z,1.80
2023-05-05T18:50:05.482Z,1.93
2023-05-05T18:52:35.960Z,2.30
2023-05-05T18:55:03.960Z,2.13
2023-05-05T18:57:32.311Z,1.90
2023-05-05T19:00:03.323Z,2.00
2023-05-05T19:02:31.370Z,2.40
2023-05-05T19:05:01.356Z,1.77
2023-05-05T19:07:35.462Z,1.70
2023-05-05T19:10:06.377Z,1.60
2023-05-05T19:12:35.679Z,1.50
2023-05-05T19:15:04.017Z,1.80
2023-05-05T19:17:32.194Z,1.70
2023-05-05T19:20:01.643Z,2.07
2023-05-05T19:22:34.779Z,1.60
2023-05-05T19:25:05.616Z,1.70
2023-05-05T19:27:33.889Z,1.33
2023-05-05T19:30:02.091Z,1.60
2023-05-05T19:32:30.348Z,1.47
2023-05-05T19:35:01.454Z,1.60
2023-05-05T19:37:32.866Z,2.30
2023-05-05T19:40:03.916Z,1.57
2023-05-05T19:42:32.604Z,1.80
2023-05-05T19:45:00.710Z,1.77
2023-05-05T19:47:28.745Z,2.00
2023-05-05T19:49:57.272Z,1.70
2023-05-05T19:52:29.161Z,1.73
2023-05-05T19:54:59.898Z,2.17
2023-05-05T19:57:31.106Z,2.27
2023-05-05T19:59:59.071Z,1.97
2023-05-05T20:02:28.467Z,1.70
2023-05-05T20:04:57.575Z,1.53
2023-05-05T20:07:25.972Z,1.40
2023-05-05T20:09:55.941Z,1.50
2023-05-05T20:12:24.085Z,1.83
2023-05-05T20:14:52.274Z,1.80
2023-05-05T20:17:23.676Z,1.47
2023-05-05T20:19:51.875Z,1.93
2023-05-05T20:22:20.587Z,1.57
2023-05-05T20:24:48.766Z,1.60
2023-05-05T20:27:18.274Z,1.77
2023-05-05T20:29:46.342Z,1.70
2023-05-05T20:32:14.619Z,1.83
2023-05-05T20:34:42.825Z,1.70
2023-05-05T20:37:12.414Z,1.70
2023-05-05T20:39:43.749Z,1.60
2023-05-05T20:42:11.663Z,2.20
2023-05-05T20:44:41.987Z,1.57
2023-05-05T20:47:10.044Z,1.60
2023-05-05T20:49:38.441Z,1.70
2023-05-05T20:52:06.555Z,1.33
2023-05-05T20:54:34.869Z,1.70
2023-05-05T20:57:03.489Z,1.90
2023-05-05T20:59:32.117Z,1.60
2023-05-05T21:02:05.296Z,2.80
2023-05-05T21:04:35.600Z,3.23
2023-05-05T21:07:03.840Z,3.10
2023-05-05T21:09:32.376Z,2.83
2023-05-05T21:12:16.347Z,2.50
2023-05-05T21:14:45.098Z,2.33
2023-05-05T21:17:14.285Z,2.17
2023-05-05T21:19:42.541Z,2.10
2023-05-05T21:22:10.589Z,2.00
2023-05-05T21:24:39.733Z,1.93
2023-05-05T21:27:10.628Z,2.17
2023-05-05T21:29:39.200Z,2.20
2023-05-05T21:32:08.574Z,2.17
2023-05-05T21:34:38.496Z,2.20
2023-05-05T21:37:07.074Z,2.00
2023-05-05T21:39:35.509Z,2.23
2023-05-05T21:42:03.684Z,2.03
2023-05-05T21:44:36.854Z,2.30
2023-05-05T21:47:06.242Z,2.17
2023-05-05T21:49:34.320Z,1.90
2023-05-05T21:52:03.908Z,1.80
2023-05-05T21:54:32.888Z,1.97
2023-05-05T21:57:02.792Z,1.90
2023-05-05T21:59:31.087Z,2.07
2023-05-05T22:01:59.295Z,1.83
2023-05-05T22:04:27.454Z,2.00
2023-05-05T22:06:55.597Z,1.73
2023-05-05T22:09:25.244Z,1.90
2023-05-05T22:11:53.376Z,1.67
2023-05-05T22:14:21.546Z,2.40
2023-05-05T22:16:49.628Z,1.90
2023-05-05T22:19:21.108Z,2.20
2023-05-05T22:21:51.553Z,2.10
2023-05-05T22:24:19.981Z,2.00
2023-05-05T22:26:49.845Z,2.07
2023-05-05T22:29:19.950Z,2.07
2023-05-05T22:31:50.702Z,2.03
2023-05-05T22:34:21.624Z,2.00
2023-05-05T22:36:50.061Z,1.50
2023-05-05T22:39:20.290Z,2.10
2023-05-05T22:41:50.101Z,1.80
2023-05-05T22:44:18.009Z,1.67
2023-05-05T22:46:45.863Z,1.77
2023-05-05T22:49:16.607Z,1.60
2023-05-05T22:51:47.481Z,1.60
2023-05-05T22:54:15.841Z,1.77
2023-05-05T22:56:44.143Z,2.00
2023-05-05T22:59:13.902Z,1.83
2023-05-05T23:01:42.539Z,1.63
2023-05-05T23:04:10.535Z,1.77
2023-05-05T23:06:39.606Z,2.00
2023-05-05T23:09:07.698Z,1.77
2023-05-05T23:11:35.825Z,2.67
2023-05-05T23:14:04.033Z,1.50
2023-05-05T23:16:33.665Z,1.40
2023-05-05T23:19:01.957Z,1.50
2023-05-05T23:21:36.221Z,1.43
2023-05-05T23:24:09.940Z,1.70
2023-05-05T23:26:37.798Z,1.40
2023-05-05T23:29:06.626Z,1.60
2023-05-05T23:31:36.051Z,1.60
2023-05-05T23:34:04.219Z,1.70
2023-05-05T23:36:32.157Z,2.00
2023-05-05T23:39:00.478Z,42.23
2023-05-05T23:41:28.711Z,23.90
2023-05-05T23:43:57.841Z,7.47
2023-05-05T23:46:26.026Z,3.20
2023-05-05T23:48:55.706Z,1.30
2023-05-05T23:51:23.923Z,1.47
2023-05-05T23:53:52.099Z,1.67
2023-05-05T23:56:20.500Z,1.60
2023-05-05T23:58:48.395Z,1.47
